KAGC

Allegheny County Airport

Pittsburgh, Pennsylvania, USA
METAR KAGC 211253Z 18008KT 10SM SCT080 18/10 A3020 RMK AO2 SLP228 T01830100
Observed Flight Rules
Feb-21 @ 12:53 UTC (29 minutes ago) Visual Flight Rules
Wind Visibility Clouds
180° at 8 knots 10 miles
  • Scattered at 8,000' AGL
Temperatures Readings
Current 18°C / 64°F
Dewpoint 10°C / 50°F
Humidity 60%
Altimeter 30.2" Hg
Pressure 1022.8 hPa
Elevation 389
METAR KAGC 211253Z 18008KT 10SM SCT080 18/10 A3020 RMK AO2 SLP228 T01830100
Observed Flight Rules
Feb-21 @ 12:53 UTC
(29 minutes ago)
VFR
Wind Visibility
180° at 8 knots 10 miles
Clouds
  • Scattered at 8,000' AGL
Temperature Dewpoint
18°C / 64°F 10°C / 50°F
Humidity Altimeter Pressure
60% 30.2" Hg 1022.8 hPa